Terminal Aerodrome Forecast
Issued by NWS

Home | Current Version | Previous Version | Graphics & Text | Print | Product List | Glossary On
Versions: 1 2 3 4 5 6 7 8 9 10 11 12 13 14 15 16
000
FTUS43 KMPX 231734
TAFAXN
TAF
KAXN 231734Z 2318/2418 32022G31KT P6SM OVC020
     FM232000 33022G35KT P6SM BKN035
     FM240000 32017G26KT P6SM SCT035
     FM240400 34024G38KT P6SM SCT035=

USA.gov is the U.S. government's official web portal to all federal, state and local government web resources and services.